Time;durP1;ratioP1;P1;durP2;ratioP2;P2;SDS_P1;SDS_P2;PMS_P1;PMS_P2;Temp;Humidity;BMP_temperature;BMP_pressure;BME280_temperature;BME280_humidity;BME280_pressure;Samples;Min_cycle;Max_cycle;Signal;HPM_P1;HPM_P2
2023/04/27 05:02:15;;;;;;;;;26.00;24.00;;;;;;;;5146576;22;45469;-48
2023/04/27 05:04:40;;;;;;;;;22.33;20.33;;;;;;;;5039698;28;46128;-47
2023/04/27 05:07:05;;;;;;;;;29.33;22.67;;;;;;;;5039693;28;45377;-50
2023/04/27 05:09:30;;;;;;;;;24.67;23.00;;;;;;;;5040049;28;45463;-49
2023/04/27 05:11:56;;;;;;;;;21.67;20.00;;;;;;;;5039147;28;46139;-48
2023/04/27 05:14:21;;;;;;;;;20.00;19.33;;;;;;;;5039170;28;46147;-50
2023/04/27 05:16:48;;;;;;;;;22.67;21.67;;;;;;;;5039808;28;45357;-48
2023/04/27 05:19:17;;;;;;;;;20.33;20.33;;;;;;;;5039293;28;45478;-49
2023/04/27 05:21:42;;;;;;;;;26.00;21.00;;;;;;;;5039766;28;45527;-50
2023/04/27 05:24:07;;;;;;;;;27.67;25.67;;;;;;;;5039192;28;46123;-46
2023/04/27 05:26:32;;;;;;;;;27.33;25.00;;;;;;;;5036176;28;45221;-49
2023/04/27 05:28:57;;;;;;;;;25.33;21.67;;;;;;;;5035857;28;45259;-46
2023/04/27 05:31:22;;;;;;;;;19.33;19.33;;;;;;;;5033632;28;45612;-48
2023/04/27 05:33:48;;;;;;;;;23.33;20.67;;;;;;;;5033598;28;46277;-49
2023/04/27 05:36:13;;;;;;;;;22.33;22.00;;;;;;;;5026791;28;45421;-48
2023/04/27 05:38:39;;;;;;;;;24.33;22.33;;;;;;;;5029641;28;45275;-51
2023/04/27 05:41:04;;;;;;;;;25.67;21.67;;;;;;;;5035573;28;45396;-47
2023/04/27 05:43:29;;;;;;;;;26.33;22.00;;;;;;;;5034426;28;45880;-50
2023/04/27 05:45:54;;;;;;;;;23.67;22.67;;;;;;;;5033984;28;45340;-47
2023/04/27 05:48:20;;;;;;;;;20.00;18.33;;;;;;;;5027049;28;45308;-50
2023/04/27 05:50:45;;;;;;;;;22.00;20.00;;;;;;;;5033897;28;45366;-50
2023/04/27 05:53:10;;;;;;;;;23.33;20.33;;;;;;;;5039050;28;46137;-49
2023/04/27 05:55:36;;;;;;;;;19.67;19.00;;;;;;;;5035875;28;45561;-47
2023/04/27 05:58:02;;;;;;;;;23.33;21.33;;;;;;;;5033296;28;45832;-48
2023/04/27 06:00:27;;;;;;;;;30.67;24.33;;;;;;;;5032101;28;45252;-50
2023/04/27 06:02:53;;;;;;;;;24.00;22.00;;;;;;;;5037189;28;47113;-50
2023/04/27 06:05:18;;;;;;;;;23.00;20.67;;;;;;;;5027536;28;45400;-50
2023/04/27 06:07:43;;;;;;;;;26.33;21.67;;;;;;;;5037930;28;45377;-51
2023/04/27 06:10:09;;;;;;;;;28.00;21.67;;;;;;;;5026130;28;45540;-47
2023/04/27 06:12:35;;;;;;;;;22.67;21.67;;;;;;;;5027279;28;46165;-49
2023/04/27 06:15:02;;;;;;;;;30.67;25.33;;;;;;;;5026862;28;45436;-50
2023/04/27 06:17:27;;;;;;;;;22.67;21.67;;;;;;;;5028047;28;45340;-50
2023/04/27 06:19:53;;;;;;;;;26.67;22.33;;;;;;;;5024926;28;45161;-48
2023/04/27 06:22:18;;;;;;;;;23.00;23.00;;;;;;;;5031075;28;46304;-50
2023/04/27 06:24:43;;;;;;;;;29.67;25.67;;;;;;;;5037594;28;45287;-50
2023/04/27 06:27:08;;;;;;;;;21.33;21.33;;;;;;;;5036907;28;45271;-49
2023/04/27 06:29:33;;;;;;;;;23.33;22.67;;;;;;;;5038761;28;45215;-48
2023/04/27 06:31:59;;;;;;;;;26.33;23.00;;;;;;;;5035797;28;45580;-50
2023/04/27 06:34:24;;;;;;;;;21.33;19.33;;;;;;;;5029784;28;45205;-52
2023/04/27 06:36:49;;;;;;;;;23.67;23.00;;;;;;;;5023061;28;45335;-49
2023/04/27 06:39:14;;;;;;;;;24.67;18.33;;;;;;;;5031875;28;45541;-52
2023/04/27 06:41:40;;;;;;;;;21.67;19.67;;;;;;;;5027570;28;46077;-53
2023/04/27 06:44:05;;;;;;;;;23.00;18.67;;;;;;;;5031011;28;45491;-52
2023/04/27 06:46:30;;;;;;;;;20.33;18.67;;;;;;;;5037396;28;45377;-53
2023/04/27 06:48:55;;;;;;;;;18.67;17.00;;;;;;;;5037818;28;45595;-52
2023/04/27 06:51:21;;;;;;;;;18.33;16.33;;;;;;;;5037115;28;46150;-51
2023/04/27 06:53:46;;;;;;;;;22.00;16.00;;;;;;;;5033322;28;45480;-50
2023/04/27 06:56:11;;;;;;;;;18.67;14.33;;;;;;;;5036758;28;45482;-57
2023/04/27 06:58:36;;;;;;;;;17.00;15.67;;;;;;;;5034994;28;45576;-53
2023/04/27 07:01:02;;;;;;;;;19.00;19.00;;;;;;;;5034143;28;46057;-52
2023/04/27 07:03:28;;;;;;;;;15.00;15.00;;;;;;;;5037578;28;45399;-53
2023/04/27 07:05:53;;;;;;;;;19.00;16.67;;;;;;;;5037049;28;45414;-51
2023/04/27 07:08:18;;;;;;;;;16.33;15.33;;;;;;;;5037442;28;45346;-53
2023/04/27 07:10:43;;;;;;;;;18.33;15.67;;;;;;;;5034021;28;46176;-52
2023/04/27 07:13:08;;;;;;;;;16.33;16.33;;;;;;;;5029821;28;45312;-52
2023/04/27 07:15:33;;;;;;;;;15.00;13.67;;;;;;;;5035967;28;45512;-53
2023/04/27 07:17:59;;;;;;;;;17.00;15.33;;;;;;;;5036642;28;45764;-52
2023/04/27 07:20:24;;;;;;;;;15.00;13.33;;;;;;;;5035656;28;45286;-52
2023/04/27 07:22:49;;;;;;;;;18.00;14.00;;;;;;;;5037083;28;45468;-50
2023/04/27 07:25:15;;;;;;;;;13.67;12.33;;;;;;;;5035193;28;45631;-51
2023/04/27 07:27:40;;;;;;;;;19.67;15.00;;;;;;;;5035116;28;45526;-52
2023/04/27 07:30:08;;;;;;;;;18.00;14.00;;;;;;;;5031915;28;47034;-52
2023/04/27 07:32:33;;;;;;;;;15.67;13.67;;;;;;;;5035245;28;45515;-53
2023/04/27 07:34:58;;;;;;;;;19.67;15.33;;;;;;;;5032528;28;45465;-53
2023/04/27 07:37:23;;;;;;;;;17.67;17.00;;;;;;;;5039098;28;45278;-53
2023/04/27 07:39:49;;;;;;;;;20.00;15.00;;;;;;;;5036069;28;47025;-53
2023/04/27 07:42:14;;;;;;;;;15.33;13.33;;;;;;;;5035783;28;45430;-53
2023/04/27 07:44:41;;;;;;;;;13.33;13.33;;;;;;;;5039823;28;45218;-54
2023/04/27 07:47:06;;;;;;;;;17.00;15.67;;;;;;;;5036809;28;45517;-54
2023/04/27 07:49:33;;;;;;;;;17.00;13.67;;;;;;;;5028883;28;46247;-53
2023/04/27 07:51:58;;;;;;;;;15.00;15.00;;;;;;;;5038172;28;45361;-54
2023/04/27 07:54:23;;;;;;;;;17.67;16.00;;;;;;;;5030288;28;45374;-53
2023/04/27 07:56:48;;;;;;;;;15.33;13.67;;;;;;;;5034290;28;45417;-52
2023/04/27 07:59:14;;;;;;;;;15.33;14.67;;;;;;;;5037789;28;45992;-53
2023/04/27 08:01:39;;;;;;;;;9.67;8.67;;;;;;;;5038052;28;45363;-52
2023/04/27 08:04:05;;;;;;;;;15.67;11.00;;;;;;;;5037437;28;45901;-54
2023/04/27 08:06:30;;;;;;;;;21.00;16.67;;;;;;;;5038571;28;45295;-54
2023/04/27 08:08:57;;;;;;;;;13.33;11.67;;;;;;;;5037732;28;46115;-55
2023/04/27 08:11:22;;;;;;;;;14.33;12.67;;;;;;;;5038168;28;45392;-55
2023/04/27 08:13:47;;;;;;;;;14.00;12.67;;;;;;;;5039706;28;45417;-54
2023/04/27 08:16:13;;;;;;;;;17.00;12.67;;;;;;;;5038293;28;45640;-56
2023/04/27 08:18:38;;;;;;;;;12.33;11.67;;;;;;;;5040481;28;45386;-55
2023/04/27 08:21:03;;;;;;;;;12.00;12.00;;;;;;;;5038542;28;45448;-56
2023/04/27 08:23:31;;;;;;;;;17.00;14.33;;;;;;;;5038844;28;45338;-56
2023/04/27 08:25:56;;;;;;;;;14.67;13.00;;;;;;;;5036948;28;45480;-54
2023/04/27 08:28:22;;;;;;;;;8.33;8.00;;;;;;;;5038894;28;46174;-54
2023/04/27 08:30:47;;;;;;;;;11.67;11.33;;;;;;;;5037045;28;45287;-54
2023/04/27 08:33:12;;;;;;;;;15.67;13.33;;;;;;;;5032591;28;45520;-56
2023/04/27 08:35:38;;;;;;;;;9.00;9.00;;;;;;;;5031525;28;45353;-56
2023/04/27 08:38:03;;;;;;;;;17.00;12.33;;;;;;;;5039100;28;45359;-56
2023/04/27 08:40:28;;;;;;;;;14.33;14.33;;;;;;;;5029590;28;45664;-56
2023/04/27 08:42:58;;;;;;;;;14.00;13.67;;;;;;;;5038498;28;45496;-56
2023/04/27 08:45:23;;;;;;;;;15.33;12.67;;;;;;;;5038513;28;47030;-57
2023/04/27 08:47:49;;;;;;;;;11.75;10.25;;;;;;;;5039115;28;45207;-56
2023/04/27 08:50:14;;;;;;;;;11.25;10.25;;;;;;;;5026603;28;45457;-57
2023/04/27 08:52:39;;;;;;;;;10.50;10.50;;;;;;;;5020776;28;45448;-57
2023/04/27 08:55:06;;;;;;;;;9.75;9.25;;;;;;;;5036056;28;45276;-58
2023/04/27 08:57:31;;;;;;;;;10.00;9.25;;;;;;;;5038781;28;45465;-57
2023/04/27 08:59:59;;;;;;;;;11.75;9.00;;;;;;;;5035382;28;45311;-58
2023/04/27 09:02:26;;;;;;;;;7.50;7.50;;;;;;;;5036121;28;45564;-57
2023/04/27 09:04:51;;;;;;;;;10.67;10.67;;;;;;;;5027395;28;45291;-58
2023/04/27 09:07:16;;;;;;;;;11.33;11.33;;;;;;;;5037870;28;46210;-58
2023/04/27 09:09:42;;;;;;;;;9.33;7.00;;;;;;;;5026586;28;45302;-58
2023/04/27 09:12:14;;;;;;;;;8.25;8.00;;;;;;;;5033591;28;45292;-58
2023/04/27 09:14:40;;;;;;;;;8.25;8.25;;;;;;;;5036547;28;45533;-58
2023/04/27 09:17:05;;;;;;;;;10.75;8.00;;;;;;;;5028243;28;46187;-60
2023/04/27 09:19:30;;;;;;;;;8.25;7.50;;;;;;;;5036542;28;45321;-55
2023/04/27 09:22:09;;;;;;;;;5.75;5.75;;;;;;;;5030802;28;45300;-56
2023/04/27 09:24:35;;;;;;;;;8.00;8.00;;;;;;;;5019277;28;45541;-55
2023/04/27 09:27:02;;;;;;;;;11.50;10.50;;;;;;;;5035322;28;46244;-55
2023/04/27 09:29:36;;;;;;;;;7.00;7.00;;;;;;;;5030778;28;45375;-55
2023/04/27 09:32:12;;;;;;;;;9.33;9.00;;;;;;;;5038681;28;45414;-55
2023/04/27 09:34:39;;;;;;;;;7.75;7.75;;;;;;;;5030724;28;45489;-57
2023/04/27 09:37:05;;;;;;;;;9.33;8.00;;;;;;;;5031262;28;45641;-55
2023/04/27 09:39:30;;;;;;;;;7.75;7.75;;;;;;;;5036177;28;45463;-55
2023/04/27 09:41:56;;;;;;;;;9.50;6.50;;;;;;;;5027012;28;45701;-55
2023/04/27 09:44:21;;;;;;;;;9.00;6.00;;;;;;;;5037223;28;45550;-58
2023/04/27 09:46:47;;;;;;;;;5.75;5.75;;;;;;;;5036653;28;45570;-58
2023/04/27 09:49:13;;;;;;;;;8.00;7.75;;;;;;;;5027542;28;45441;-58
2023/04/27 09:51:38;;;;;;;;;8.75;7.75;;;;;;;;5035193;28;45458;-55
2023/04/27 09:54:04;;;;;;;;;8.25;8.25;;;;;;;;5037878;28;45633;-56
2023/04/27 09:56:50;;;;;;;;;13.67;13.67;;;;;;;;5027505;28;45424;-55
2023/04/27 09:59:15;;;;;;;;;5.50;5.00;;;;;;;;5027638;28;45523;-55
2023/04/27 10:01:46;;;;;;;;;15.33;11.33;;;;;;;;5036923;28;45402;-56
2023/04/27 10:04:36;;;;;;;;;12.67;10.33;;;;;;;;5037854;28;45569;-56
2023/04/27 10:07:07;;;;;;;;;6.00;6.00;;;;;;;;5036554;28;47252;-54
2023/04/27 10:09:35;;;;;;;;;9.75;9.25;;;;;;;;5032567;28;45188;-58
2023/04/27 10:12:13;;;;;;;;;7.33;7.00;;;;;;;;5027521;28;45711;-58
2023/04/27 10:14:46;;;;;;;;;4.00;4.00;;;;;;;;5025867;28;45257;-58
2023/04/27 10:17:12;;;;;;;;;7.25;6.25;;;;;;;;5030850;28;46406;-58
2023/04/27 10:19:37;;;;;;;;;7.25;6.25;;;;;;;;5035391;28;45587;-58
2023/04/27 10:22:02;;;;;;;;;18.33;14.00;;;;;;;;5032376;28;45454;-56
2023/04/27 10:24:37;;;;;;;;;6.00;6.00;;;;;;;;5037804;28;45548;-58
2023/04/27 10:27:04;;;;;;;;;3.00;3.00;;;;;;;;5029666;28;46016;-58
2023/04/27 10:29:36;;;;;;;;;5.00;5.00;;;;;;;;5033793;28;45751;-59
2023/04/27 10:32:05;;;;;;;;;8.00;4.75;;;;;;;;5037934;28;45892;-56
2023/04/27 10:34:33;;;;;;;;;5.25;5.25;;;;;;;;5033153;28;45494;-58
2023/04/27 10:37:03;;;;;;;;;7.00;4.75;;;;;;;;5029770;28;45506;-58
2023/04/27 10:39:33;;;;;;;;;5.00;5.00;;;;;;;;5034506;28;45568;-56
2023/04/27 10:41:58;;;;;;;;;6.50;6.50;;;;;;;;5030550;28;45487;-56
2023/04/27 10:44:23;;;;;;;;;3.25;3.25;;;;;;;;5036349;28;45338;-56
2023/04/27 10:46:50;;;;;;;;;5.20;5.20;;;;;;;;5038660;28;46118;-56
2023/04/27 10:49:15;;;;;;;;;7.00;7.00;;;;;;;;5033422;28;45405;-59
2023/04/27 10:51:40;;;;;;;;;4.00;4.00;;;;;;;;5031628;28;45591;-56
2023/04/27 10:54:05;;;;;;;;;7.25;6.00;;;;;;;;5023516;28;45430;-50
2023/04/27 10:56:31;;;;;;;;;8.00;6.00;;;;;;;;5028924;28;45894;-54
2023/04/27 10:59:01;;;;;;;;;6.25;5.25;;;;;;;;5035418;28;45682;-55
2023/04/27 11:01:28;;;;;;;;;6.00;5.00;;;;;;;;5034266;28;45494;-57
2023/04/27 11:03:53;;;;;;;;;3.00;3.00;;;;;;;;5037762;28;45605;-58
2023/04/27 11:06:19;;;;;;;;;6.00;5.00;;;;;;;;5037489;28;45321;-60
2023/04/27 11:08:44;;;;;;;;;3.00;3.00;;;;;;;;5035828;28;45656;-56
2023/04/27 11:11:13;;;;;;;;;5.25;5.25;;;;;;;;5033666;28;45521;-57
2023/04/27 11:13:38;;;;;;;;;6.67;6.00;;;;;;;;5037547;28;45567;-57
2023/04/27 11:16:03;;;;;;;;;4.25;4.25;;;;;;;;5032346;28;47106;-62
2023/04/27 11:18:30;;;;;;;;;5.50;5.00;;;;;;;;5041256;28;45419;-60
2023/04/27 11:21:09;;;;;;;;;2.25;2.25;;;;;;;;5038109;28;45627;-63
2023/04/27 11:23:38;;;;;;;;;6.75;5.25;;;;;;;;5033739;28;45544;-61
2023/04/27 11:26:09;;;;;;;;;5.25;5.25;;;;;;;;5036682;28;45543;-65
2023/04/27 11:28:35;;;;;;;;;7.00;5.75;;;;;;;;5038851;28;45316;-51
2023/04/27 11:31:00;;;;;;;;;5.00;3.50;;;;;;;;5036156;28;45885;-54
2023/04/27 11:33:26;;;;;;;;;8.67;7.33;;;;;;;;5039623;28;45326;-53
2023/04/27 11:35:52;;;;;;;;;4.75;4.75;;;;;;;;5035151;28;46303;-54
2023/04/27 11:38:17;;;;;;;;;3.50;3.50;;;;;;;;5039222;28;45399;-53
2023/04/27 11:40:43;;;;;;;;;4.25;4.25;;;;;;;;5032844;28;45440;-54
2023/04/27 11:43:12;;;;;;;;;5.25;5.00;;;;;;;;5043444;28;45419;-53
2023/04/27 11:45:40;;;;;;;;;5.67;5.67;;;;;;;;5033459;28;45260;-52
2023/04/27 11:48:06;;;;;;;;;7.00;7.00;;;;;;;;5035252;28;45492;-53
2023/04/27 11:50:31;;;;;;;;;7.33;7.33;;;;;;;;5035203;28;45489;-53
2023/04/27 11:52:59;;;;;;;;;5.25;5.25;;;;;;;;5022386;28;45371;-53
2023/04/27 11:55:25;;;;;;;;;4.25;4.25;;;;;;;;5026902;28;46474;-51
2023/04/27 11:57:55;;;;;;;;;8.00;8.00;;;;;;;;5030247;28;45395;-53
2023/04/27 12:00:20;;;;;;;;;6.67;6.67;;;;;;;;5021985;28;45414;-53
2023/04/27 12:02:46;;;;;;;;;6.67;5.33;;;;;;;;5026596;28;45496;-52
2023/04/27 12:05:11;;;;;;;;;7.00;7.00;;;;;;;;5034012;28;46630;-52
2023/04/27 12:07:37;;;;;;;;;5.00;5.00;;;;;;;;5022322;28;45374;-52
2023/04/27 12:10:02;;;;;;;;;2.00;2.00;;;;;;;;5020883;28;45316;-54
2023/04/27 12:12:27;;;;;;;;;6.67;5.00;;;;;;;;5033890;28;45469;-50
2023/04/27 12:14:53;;;;;;;;;3.67;3.67;;;;;;;;5023102;28;46292;-51
2023/04/27 12:17:18;;;;;;;;;5.00;5.00;;;;;;;;5033234;28;45436;-52
2023/04/27 12:19:43;;;;;;;;;6.33;5.00;;;;;;;;5023098;28;45330;-53
2023/04/27 12:22:09;;;;;;;;;6.33;5.33;;;;;;;;5022394;28;45408;-53
2023/04/27 12:24:35;;;;;;;;;6.67;3.67;;;;;;;;5033954;28;45358;-49
2023/04/27 12:27:02;;;;;;;;;7.00;6.67;;;;;;;;5023017;28;45390;-53
2023/04/27 12:29:27;;;;;;;;;7.67;7.33;;;;;;;;5027069;28;45341;-52
2023/04/27 12:31:52;;;;;;;;;6.00;5.00;;;;;;;;5032937;28;45333;-51
2023/04/27 12:34:18;;;;;;;;;8.00;6.00;;;;;;;;5040088;28;45799;-53
2023/04/27 12:36:43;;;;;;;;;7.00;7.00;;;;;;;;5040701;28;45286;-53
2023/04/27 12:39:26;;;;;;;;;3.67;3.67;;;;;;;;5040100;28;45176;-52
2023/04/27 12:41:52;;;;;;;;;6.33;5.67;;;;;;;;5034011;28;45321;-52
2023/04/27 12:44:18;;;;;;;;;5.00;5.00;;;;;;;;5042158;28;45332;-52
2023/04/27 12:46:44;;;;;;;;;8.67;5.33;;;;;;;;5040825;28;45318;-52
2023/04/27 12:49:10;;;;;;;;;7.00;5.00;;;;;;;;5033721;28;45331;-51
2023/04/27 12:51:35;;;;;;;;;6.00;6.00;;;;;;;;5040331;28;45268;-52
2023/04/27 12:54:04;;;;;;;;;10.00;7.67;;;;;;;;5039018;28;46281;-53
2023/04/27 12:56:29;;;;;;;;;7.33;6.33;;;;;;;;5040503;28;46325;-53
2023/04/27 12:58:54;;;;;;;;;7.00;5.67;;;;;;;;5035943;28;45736;-53
2023/04/27 13:01:23;;;;;;;;;7.67;5.67;;;;;;;;5039930;28;45377;-53
2023/04/27 13:03:50;;;;;;;;;5.00;5.00;;;;;;;;5039891;28;46264;-52
2023/04/27 13:06:16;;;;;;;;;6.00;6.00;;;;;;;;5039779;28;45638;-53
2023/04/27 13:08:41;;;;;;;;;5.00;5.00;;;;;;;;5039648;28;45414;-53
2023/04/27 13:11:06;;;;;;;;;6.00;6.00;;;;;;;;5039790;28;45417;-50
2023/04/27 13:13:31;;;;;;;;;6.67;4.33;;;;;;;;5031596;28;45320;-48
2023/04/27 13:15:57;;;;;;;;;3.00;3.00;;;;;;;;5039851;28;45397;-51
2023/04/27 13:18:22;;;;;;;;;5.67;5.67;;;;;;;;5039693;28;45334;-52
2023/04/27 13:20:47;;;;;;;;;6.00;6.00;;;;;;;;5039573;28;45421;-52
2023/04/27 13:23:13;;;;;;;;;6.00;4.00;;;;;;;;5030954;28;45404;-52
2023/04/27 13:25:38;;;;;;;;;5.33;5.00;;;;;;;;5039552;28;45341;-52
2023/04/27 13:28:03;;;;;;;;;6.00;6.00;;;;;;;;5029859;28;45282;-50
2023/04/27 13:30:29;;;;;;;;;6.67;4.67;;;;;;;;5025233;28;45426;-52
2023/04/27 13:32:54;;;;;;;;;6.00;6.00;;;;;;;;5038927;28;45317;-52
2023/04/27 13:35:20;;;;;;;;;7.33;6.00;;;;;;;;5038836;28;45390;-52
2023/04/27 13:37:45;;;;;;;;;8.00;8.00;;;;;;;;5035487;28;45353;-51
2023/04/27 13:40:10;;;;;;;;;5.67;5.00;;;;;;;;5037951;28;45602;-51
2023/04/27 13:42:39;;;;;;;;;4.67;4.67;;;;;;;;5041612;28;46037;-51
2023/04/27 13:45:04;;;;;;;;;5.00;5.00;;;;;;;;5040176;28;45322;-48
2023/04/27 13:47:36;;;;;;;;;13.67;13.00;;;;;;;;5039758;28;45455;-50
2023/04/27 13:50:02;;;;;;;;;9.00;8.00;;;;;;;;5039005;28;45433;-52
2023/04/27 13:52:28;;;;;;;;;9.00;8.00;;;;;;;;5037956;28;45551;-48
2023/04/27 13:54:53;;;;;;;;;7.67;6.00;;;;;;;;5038279;28;45347;-50
2023/04/27 13:57:18;;;;;;;;;11.33;7.00;;;;;;;;5038350;28;45225;-51
2023/04/27 13:59:44;;;;;;;;;6.67;6.67;;;;;;;;5035465;28;44823;-50
2023/04/27 14:02:09;;;;;;;;;7.33;6.67;;;;;;;;5037576;28;46077;-52
2023/04/27 14:04:34;;;;;;;;;6.67;6.00;;;;;;;;5039345;28;45276;-50
2023/04/27 14:06:59;;;;;;;;;7.00;5.00;;;;;;;;5039468;28;45537;-50
2023/04/27 14:09:25;;;;;;;;;7.33;6.00;;;;;;;;5037186;28;45959;-52
2023/04/27 14:11:51;;;;;;;;;4.00;3.67;;;;;;;;5038995;28;47348;-49
2023/04/27 14:14:17;;;;;;;;;6.00;4.67;;;;;;;;5038565;28;45299;-50
2023/04/27 14:16:42;;;;;;;;;6.67;5.00;;;;;;;;5039118;28;45404;-48
2023/04/27 14:19:09;;;;;;;;;5.33;5.33;;;;;;;;5038990;28;45425;-47
2023/04/27 14:21:34;;;;;;;;;3.67;3.67;;;;;;;;5027508;28;45743;-50
2023/04/27 14:23:59;;;;;;;;;4.00;4.00;;;;;;;;5031363;28;45738;-52
2023/04/27 14:26:25;;;;;;;;;5.33;4.00;;;;;;;;5038394;28;45366;-50
2023/04/27 14:28:50;;;;;;;;;6.67;6.33;;;;;;;;5039306;28;45417;-50
2023/04/27 14:31:16;;;;;;;;;5.00;5.00;;;;;;;;5027239;28;46233;-50
2023/04/27 14:33:41;;;;;;;;;4.00;4.00;;;;;;;;5039146;28;45302;-51
2023/04/27 14:36:06;;;;;;;;;6.00;5.00;;;;;;;;5035366;28;45322;-48
2023/04/27 14:38:32;;;;;;;;;6.00;5.33;;;;;;;;5038717;28;45428;-52
2023/04/27 14:40:57;;;;;;;;;3.00;3.00;;;;;;;;5035126;28;45416;-48
2023/04/27 14:43:22;;;;;;;;;4.67;4.33;;;;;;;;5040784;28;45333;-52
2023/04/27 14:45:47;;;;;;;;;4.33;4.33;;;;;;;;5037671;28;45464;-50
2023/04/27 14:48:12;;;;;;;;;8.00;5.33;;;;;;;;5038470;28;45217;-50
2023/04/27 14:50:38;;;;;;;;;4.33;4.33;;;;;;;;5038483;28;46238;-50
2023/04/27 14:53:03;;;;;;;;;4.00;4.00;;;;;;;;5038180;28;45477;-50
2023/04/27 14:55:28;;;;;;;;;5.00;3.00;;;;;;;;5038440;28;45498;-48
2023/04/27 14:57:53;;;;;;;;;4.00;4.00;;;;;;;;5038677;28;45303;-51
2023/04/27 15:00:18;;;;;;;;;5.33;5.00;;;;;;;;5037787;28;46317;-52
2023/04/27 15:02:44;;;;;;;;;3.67;3.67;;;;;;;;5038398;28;45372;-52
2023/04/27 15:05:09;;;;;;;;;5.00;3.33;;;;;;;;5036896;28;45450;-53
2023/04/27 15:07:35;;;;;;;;;4.00;4.00;;;;;;;;5037557;28;45211;-53
2023/04/27 15:10:00;;;;;;;;;4.67;4.33;;;;;;;;5037023;28;47001;-53
2023/04/27 15:12:25;;;;;;;;;5.67;4.67;;;;;;;;5037017;28;45271;-50
2023/04/27 15:14:52;;;;;;;;;6.33;6.33;;;;;;;;5038600;28;45399;-53
2023/04/27 15:17:17;;;;;;;;;5.33;4.67;;;;;;;;5030525;28;45366;-51
2023/04/27 15:19:42;;;;;;;;;3.67;2.33;;;;;;;;5038169;28;45270;-49
2023/04/27 15:22:08;;;;;;;;;3.33;3.00;;;;;;;;5038018;28;45446;-49
2023/04/27 15:24:33;;;;;;;;;6.33;4.67;;;;;;;;5036336;28;45299;-51
2023/04/27 15:26:58;;;;;;;;;6.33;6.33;;;;;;;;5038450;28;45347;-54
2023/04/27 15:29:24;;;;;;;;;12.00;12.00;;;;;;;;5036729;28;45542;-53
2023/04/27 15:31:49;;;;;;;;;13.00;12.00;;;;;;;;5030274;28;45386;-53
2023/04/27 15:34:14;;;;;;;;;12.33;12.33;;;;;;;;5035742;28;45653;-53
2023/04/27 15:36:40;;;;;;;;;16.33;12.33;;;;;;;;5037055;28;45409;-52
2023/04/27 15:39:06;;;;;;;;;17.33;12.33;;;;;;;;5035256;28;46798;-51
2023/04/27 15:41:31;;;;;;;;;12.67;11.00;;;;;;;;5037752;28;45256;-51
2023/04/27 15:43:57;;;;;;;;;11.33;8.67;;;;;;;;5040574;28;45454;-53
2023/04/27 15:46:22;;;;;;;;;14.33;12.33;;;;;;;;5038314;28;45326;-52
2023/04/27 15:48:47;;;;;;;;;14.00;13.67;;;;;;;;5037888;28;46042;-53
2023/04/27 15:51:12;;;;;;;;;9.33;9.33;;;;;;;;5037323;28;45295;-58
2023/04/27 15:53:37;;;;;;;;;12.00;11.67;;;;;;;;5037751;28;45223;-58
2023/04/27 15:56:03;;;;;;;;;10.00;10.00;;;;;;;;5036511;28;45559;-54
2023/04/27 15:58:28;;;;;;;;;9.33;9.33;;;;;;;;5036910;28;46237;-58
2023/04/27 16:00:53;;;;;;;;;16.33;14.67;;;;;;;;5041012;28;45294;-57
2023/04/27 16:03:18;;;;;;;;;5.67;5.67;;;;;;;;5040923;28;45216;-57
2023/04/27 16:05:43;;;;;;;;;10.00;9.33;;;;;;;;5034592;28;45289;-56
2023/04/27 16:08:09;;;;;;;;;8.67;8.67;;;;;;;;5032713;28;46736;-52
2023/04/27 16:10:34;;;;;;;;;7.67;7.67;;;;;;;;5037355;28;45272;-52
2023/04/27 16:12:59;;;;;;;;;10.00;10.00;;;;;;;;5029593;28;45342;-54
2023/04/27 16:15:25;;;;;;;;;16.33;16.00;;;;;;;;5033079;28;45245;-54
2023/04/27 16:17:50;;;;;;;;;14.33;13.67;;;;;;;;5032439;28;46392;-54
2023/04/27 16:20:15;;;;;;;;;21.25;21.25;;;;;;;;5027386;28;45222;-53
2023/04/27 16:22:40;;;;;;;;;16.75;16.00;;;;;;;;5029897;28;45486;-53
2023/04/27 16:25:09;;;;;;;;;33.75;31.75;;;;;;;;5033553;28;45379;-54
2023/04/27 16:27:34;;;;;;;;;18.50;16.00;;;;;;;;5032471;28;46876;-54
2023/04/27 16:29:59;;;;;;;;;20.50;20.00;;;;;;;;5022078;28;45767;-53
2023/04/27 16:32:25;;;;;;;;;26.75;25.75;;;;;;;;5020581;28;45713;-53
2023/04/27 16:34:50;;;;;;;;;40.00;35.50;;;;;;;;5038518;28;45423;-53
2023/04/27 16:37:15;;;;;;;;;11.67;11.67;;;;;;;;5028399;28;46296;-53
2023/04/27 16:39:41;;;;;;;;;18.33;14.67;;;;;;;;5038279;28;45283;-53
2023/04/27 16:42:06;;;;;;;;;15.00;12.67;;;;;;;;5039716;28;45433;-52
2023/04/27 16:44:31;;;;;;;;;10.50;10.50;;;;;;;;5040458;28;45229;-54
2023/04/27 16:46:56;;;;;;;;;37.75;34.00;;;;;;;;5042913;28;45991;-54
2023/04/27 16:49:21;;;;;;;;;15.25;14.25;;;;;;;;5039688;28;45270;-55
2023/04/27 16:51:47;;;;;;;;;24.25;23.50;;;;;;;;5040560;28;45306;-54
2023/04/27 16:54:15;;;;;;;;;26.00;25.00;;;;;;;;5039287;28;45218;-54
2023/04/27 16:56:40;;;;;;;;;24.50;23.00;;;;;;;;5039710;28;45346;-53
2023/04/27 16:59:06;;;;;;;;;26.25;26.25;;;;;;;;5034557;28;45248;-54
2023/04/27 17:01:31;;;;;;;;;46.75;40.00;;;;;;;;5040334;28;45463;-54
2023/04/27 17:03:58;;;;;;;;;85.50;85.00;;;;;;;;5046888;28;45489;-54
2023/04/27 17:06:27;;;;;;;;;62.50;52.75;;;;;;;;5038119;28;46666;-53
2023/04/27 17:08:52;;;;;;;;;10.00;9.00;;;;;;;;5030881;28;45282;-54
2023/04/27 17:11:21;;;;;;;;;7.67;6.67;;;;;;;;5031515;28;45480;-53
2023/04/27 17:13:48;;;;;;;;;8.00;8.00;;;;;;;;5040053;28;45572;-54
2023/04/27 17:16:14;;;;;;;;;8.33;7.00;;;;;;;;5038183;28;46128;-53
2023/04/27 17:18:41;;;;;;;;;10.00;9.00;;;;;;;;5034760;28;45348;-53
2023/04/27 17:21:07;;;;;;;;;9.00;9.00;;;;;;;;5037804;28;45257;-53
2023/04/27 17:23:34;;;;;;;;;7.67;6.33;;;;;;;;5040015;28;45193;-54
2023/04/27 17:26:00;;;;;;;;;8.33;8.33;;;;;;;;5039880;28;45300;-53
2023/04/27 17:28:25;;;;;;;;;9.00;7.67;;;;;;;;5039533;28;45232;-53
2023/04/27 17:30:50;;;;;;;;;7.67;6.00;;;;;;;;5037569;28;45306;-55
2023/04/27 17:33:15;;;;;;;;;7.33;6.33;;;;;;;;5036274;28;45644;-54
2023/04/27 17:35:45;;;;;;;;;6.33;6.00;;;;;;;;5037676;28;45207;-52
2023/04/27 17:38:11;;;;;;;;;5.00;4.00;;;;;;;;5039131;28;45391;-54
2023/04/27 17:40:36;;;;;;;;;5.00;5.00;;;;;;;;5038311;28;45425;-51
2023/04/27 17:43:01;;;;;;;;;7.00;7.00;;;;;;;;5044330;28;45711;-54
2023/04/27 17:45:27;;;;;;;;;7.00;7.00;;;;;;;;5041542;28;46024;-54
2023/04/27 17:47:52;;;;;;;;;6.33;4.00;;;;;;;;5042550;28;45367;-54
2023/04/27 17:50:18;;;;;;;;;8.00;7.33;;;;;;;;5039100;28;45331;-54
2023/04/27 17:52:43;;;;;;;;;10.00;8.33;;;;;;;;5039577;28;45425;-53
2023/04/27 17:55:08;;;;;;;;;8.67;8.00;;;;;;;;5034848;28;46488;-53
2023/04/27 17:57:33;;;;;;;;;8.67;8.33;;;;;;;;5039303;28;45598;-52
2023/04/27 17:59:58;;;;;;;;;7.00;7.00;;;;;;;;5037878;28;45608;-54
2023/04/27 18:02:24;;;;;;;;;8.00;7.67;;;;;;;;5040694;28;45276;-51
2023/04/27 18:04:49;;;;;;;;;8.67;8.67;;;;;;;;5038368;28;46386;-55
2023/04/27 18:07:17;;;;;;;;;11.00;9.67;;;;;;;;5031925;28;45868;-54
2023/04/27 18:09:42;;;;;;;;;10.67;9.00;;;;;;;;5035344;28;45575;-55
2023/04/27 18:12:09;;;;;;;;;8.67;8.67;;;;;;;;5025360;28;45549;-55
2023/04/27 18:14:35;;;;;;;;;7.67;7.67;;;;;;;;5033878;28;45718;-55
2023/04/27 18:17:00;;;;;;;;;7.67;7.67;;;;;;;;5037644;28;45597;-55
2023/04/27 18:19:25;;;;;;;;;6.67;6.67;;;;;;;;5038399;28;45331;-54
2023/04/27 18:21:50;;;;;;;;;8.00;7.33;;;;;;;;5038879;28;45375;-55
2023/04/27 18:24:16;;;;;;;;;11.00;10.00;;;;;;;;5034288;28;46198;-56
2023/04/27 18:26:41;;;;;;;;;11.67;9.67;;;;;;;;5033149;28;45398;-56
2023/04/27 18:29:06;;;;;;;;;13.00;10.00;;;;;;;;5037949;28;45513;-54
2023/04/27 18:31:31;;;;;;;;;10.00;10.00;;;;;;;;5034637;28;45517;-56
2023/04/27 18:33:58;;;;;;;;;8.67;8.67;;;;;;;;5034877;28;45979;-55
2023/04/27 18:36:24;;;;;;;;;10.00;8.00;;;;;;;;5036882;28;45742;-56
2023/04/27 18:38:50;;;;;;;;;14.00;12.67;;;;;;;;5034874;28;45562;-55
2023/04/27 18:41:15;;;;;;;;;10.00;9.33;;;;;;;;5036253;28;45616;-54
2023/04/27 18:43:40;;;;;;;;;10.00;8.67;;;;;;;;5033974;28;46158;-54
2023/04/27 18:46:06;;;;;;;;;15.00;13.00;;;;;;;;5038876;28;45493;-54
2023/04/27 18:48:31;;;;;;;;;12.67;10.67;;;;;;;;5029881;28;45755;-54
2023/04/27 18:50:56;;;;;;;;;11.00;10.00;;;;;;;;5033556;28;45326;-54
2023/04/27 18:53:21;;;;;;;;;9.67;9.00;;;;;;;;5035723;28;46073;-54
2023/04/27 18:55:47;;;;;;;;;11.00;10.00;;;;;;;;5033073;28;45314;-54
2023/04/27 18:58:12;;;;;;;;;14.67;8.67;;;;;;;;5036241;28;45342;-55
2023/04/27 19:00:37;;;;;;;;;11.00;10.67;;;;;;;;5048993;28;45376;-53
2023/04/27 19:03:03;;;;;;;;;9.67;9.67;;;;;;;;5035905;28;46058;-55
2023/04/27 19:05:28;;;;;;;;;14.67;11.00;;;;;;;;5034665;28;45403;-55
2023/04/27 19:07:54;;;;;;;;;13.00;13.00;;;;;;;;5034190;28;45374;-54
2023/04/27 19:10:19;;;;;;;;;17.67;16.33;;;;;;;;5033948;28;45603;-55
2023/04/27 19:12:44;;;;;;;;;13.33;12.00;;;;;;;;5025506;28;45382;-55
2023/04/27 19:15:10;;;;;;;;;11.00;11.00;;;;;;;;5025881;28;45369;-54
2023/04/27 19:17:36;;;;;;;;;13.00;11.00;;;;;;;;5031362;28;45358;-53
2023/04/27 19:20:01;;;;;;;;;10.00;9.00;;;;;;;;5032397;28;45317;-54
2023/04/27 19:22:28;;;;;;;;;9.00;9.00;;;;;;;;5027887;28;48244;-50
2023/04/27 19:24:53;;;;;;;;;11.67;9.67;;;;;;;;5031256;28;45489;-49